Time;durP1;ratioP1;P1;durP2;ratioP2;P2;SDS_P1;SDS_P2;PMS_P1;PMS_P2;Temp;Humidity;BMP_temperature;BMP_pressure;BME280_temperature;BME280_humidity;BME280_pressure;Samples;Min_cycle;Max_cycle;Signal;HPM_P1;HPM_P2
2023/07/04 00:01:46;;;;;;;5.93;1.38;;;14.00;99.90;;;;;;4994531;28;20030;-47
2023/07/04 00:04:12;;;;;;;3.83;1.45;;;14.00;99.90;;;;;;5009412;28;20403;-54
2023/07/04 00:06:39;;;;;;;7.05;1.80;;;13.90;99.90;;;;;;4991482;28;20097;-49
2023/07/04 00:09:07;;;;;;;3.15;1.23;;;13.90;99.90;;;;;;4994495;28;20054;-46
2023/07/04 00:11:33;;;;;;;5.85;1.60;;;13.90;99.90;;;;;;4995121;28;20030;-46
2023/07/04 00:13:58;;;;;;;8.20;1.40;;;13.80;99.90;;;;;;4994265;28;20342;-48
2023/07/04 00:16:24;;;;;;;3.97;1.20;;;13.80;99.90;;;;;;4994870;28;20493;-49
2023/07/04 00:18:50;;;;;;;4.05;1.60;;;13.80;99.90;;;;;;4995137;28;20402;-50
2023/07/04 00:21:16;;;;;;;3.38;1.35;;;13.80;99.90;;;;;;4995346;28;20023;-49
2023/07/04 00:23:45;;;;;;;4.65;1.40;;;13.70;99.90;;;;;;4990985;28;20032;-53
2023/07/04 00:26:14;;;;;;;3.38;1.15;;;13.70;99.90;;;;;;4993827;28;20038;-48
2023/07/04 00:28:42;;;;;;;4.70;1.20;;;13.70;99.90;;;;;;4993715;28;20018;-55
2023/07/04 00:31:10;;;;;;;4.30;1.70;;;13.70;99.90;;;;;;4990386;28;20062;-54
2023/07/04 00:33:37;;;;;;;2.92;1.13;;;13.70;99.90;;;;;;4995234;28;20479;-51
2023/07/04 00:36:20;;;;;;;3.08;1.38;;;13.70;99.90;;;;;;4991061;28;20034;-55
2023/07/04 00:38:51;;;;;;;5.75;1.35;;;13.70;99.90;;;;;;4996463;28;20050;-51
2023/07/04 00:41:23;;;;;;;4.53;1.58;;;13.60;99.90;;;;;;4991627;28;20026;-49
2023/07/04 00:44:09;;;;;;;3.25;1.30;;;13.50;99.90;;;;;;4997216;28;20018;-50
2023/07/04 00:46:39;;;;;;;5.63;1.25;;;13.50;99.90;;;;;;4992353;28;20431;-53
2023/07/04 00:49:41;;;;;;;2.08;0.93;;;13.40;99.90;;;;;;4993737;28;20072;-53
2023/07/04 00:52:18;;;;;;;2.70;1.02;;;13.40;99.90;;;;;;4992653;28;20504;-45
2023/07/04 00:54:54;;;;;;;5.15;1.20;;;13.40;99.90;;;;;;4990357;28;21039;-49
2023/07/04 00:57:21;;;;;;;5.60;1.10;;;13.30;99.90;;;;;;4993781;28;20553;-49
2023/07/04 00:59:51;;;;;;;2.83;1.08;;;13.30;99.90;;;;;;4991351;28;20018;-51
2023/07/04 01:02:21;;;;;;;2.97;1.10;;;13.20;99.90;;;;;;4993711;28;20033;-49
2023/07/04 01:04:49;;;;;;;5.82;1.40;;;13.20;99.90;;;;;;4993262;28;20032;-46
2023/07/04 01:07:53;;;;;;;1.75;1.00;;;13.10;99.90;;;;;;4994289;28;20015;-46
2023/07/04 01:10:25;;;;;;;3.38;1.27;;;13.10;99.90;;;;;;4999716;28;20413;-46
2023/07/04 01:12:51;;;;;;;6.28;1.55;;;13.10;99.90;;;;;;5010180;28;20092;-49
2023/07/04 01:15:17;;;;;;;1.98;1.00;;;13.10;99.90;;;;;;5009917;28;20048;-46
2023/07/04 01:17:42;;;;;;;3.92;1.10;;;13.10;99.90;;;;;;5006854;28;20379;-46
2023/07/04 01:20:11;;;;;;;3.17;1.10;;;13.10;99.90;;;;;;5010280;28;20448;-49
2023/07/04 01:22:49;;;;;;;5.78;1.40;;;13.10;99.90;;;;;;5009848;28;20026;-52
2023/07/04 01:25:35;;;;;;;5.35;1.48;;;13.10;99.90;;;;;;5010182;28;20033;-46
2023/07/04 01:28:03;;;;;;;4.80;1.15;;;13.00;99.90;;;;;;5009525;28;20049;-50
2023/07/04 01:30:31;;;;;;;4.53;1.10;;;13.10;99.90;;;;;;5009826;28;20565;-49
2023/07/04 01:33:00;;;;;;;2.80;1.15;;;13.10;99.90;;;;;;5009888;28;20109;-49
2023/07/04 01:35:27;;;;;;;3.63;1.30;;;13.10;99.90;;;;;;5009916;28;20034;-49
2023/07/04 01:37:54;;;;;;;4.75;0.90;;;13.10;99.90;;;;;;5009268;28;20076;-52
2023/07/04 01:40:20;;;;;;;3.42;1.10;;;13.10;99.90;;;;;;5009467;28;20073;-49
2023/07/04 01:42:48;;;;;;;3.85;1.33;;;13.10;99.90;;;;;;5010002;28;20049;-48
2023/07/04 01:45:14;;;;;;;5.60;1.10;;;13.10;99.90;;;;;;5013010;28;20147;-48
2023/07/04 01:47:40;;;;;;;4.65;1.15;;;13.00;99.90;;;;;;5012977;28;20064;-45
2023/07/04 01:50:08;;;;;;;3.58;1.17;;;13.00;99.90;;;;;;5013511;28;20030;-47
2023/07/04 01:52:34;;;;;;;2.85;1.23;;;12.90;99.90;;;;;;5012336;28;20072;-50
2023/07/04 01:55:00;;;;;;;5.03;1.33;;;12.90;99.90;;;;;;5012143;28;20520;-48
2023/07/04 01:57:26;;;;;;;5.95;1.20;;;12.90;99.90;;;;;;5013096;28;20053;-45
2023/07/04 01:59:51;;;;;;;3.60;1.10;;;12.80;99.90;;;;;;5013155;28;20509;-51
2023/07/04 02:02:18;;;;;;;5.40;1.50;;;12.80;99.90;;;;;;5013173;28;20487;-46
2023/07/04 02:04:43;;;;;;;1.83;0.90;;;12.80;99.90;;;;;;5012669;28;20101;-49
2023/07/04 02:07:11;;;;;;;4.22;1.30;;;12.80;99.90;;;;;;5012834;28;20121;-49
2023/07/04 02:09:36;;;;;;;5.63;1.35;;;12.80;99.90;;;;;;5012524;28;20041;-51
2023/07/04 02:12:02;;;;;;;3.42;0.90;;;12.70;99.90;;;;;;5012984;28;20036;-47
2023/07/04 02:14:28;;;;;;;3.30;1.00;;;12.70;99.90;;;;;;5012871;28;20501;-47
2023/07/04 02:16:53;;;;;;;3.17;1.13;;;12.70;99.90;;;;;;5012275;28;20041;-46
2023/07/04 02:19:19;;;;;;;4.53;1.10;;;12.70;99.90;;;;;;5013112;28;20439;-50
2023/07/04 02:21:45;;;;;;;3.90;1.20;;;12.70;99.90;;;;;;5012661;28;20026;-49
2023/07/04 02:24:11;;;;;;;4.07;1.00;;;12.70;99.90;;;;;;5012734;28;20441;-46
2023/07/04 02:26:37;;;;;;;1.95;0.95;;;12.70;99.90;;;;;;5012373;28;20029;-57
2023/07/04 02:29:02;;;;;;;3.38;1.30;;;12.70;99.90;;;;;;5012541;28;20029;-46
2023/07/04 02:31:28;;;;;;;3.53;1.13;;;12.70;99.90;;;;;;5012533;28;20029;-45
2023/07/04 02:33:54;;;;;;;3.38;1.27;;;12.70;99.90;;;;;;5021822;28;20485;-47
2023/07/04 02:36:20;;;;;;;7.93;1.48;;;12.80;99.90;;;;;;5028333;28;20033;-51
2023/07/04 02:38:46;;;;;;;4.38;1.60;;;12.80;99.90;;;;;;5012232;28;20026;-51
2023/07/04 02:41:12;;;;;;;7.85;1.33;;;12.80;99.90;;;;;;5020372;28;20111;-50
2023/07/04 02:43:37;;;;;;;4.72;1.10;;;12.80;99.90;;;;;;5011882;28;20478;-47
2023/07/04 02:46:05;;;;;;;5.95;1.30;;;12.80;99.90;;;;;;5012064;28;20099;-52
2023/07/04 02:48:33;;;;;;;6.70;2.55;;;12.80;99.90;;;;;;5011994;28;20049;-46
2023/07/04 02:51:00;;;;;;;2.70;1.20;;;12.80;99.90;;;;;;5016693;28;20034;-46
2023/07/04 02:53:26;;;;;;;3.35;1.30;;;12.90;99.90;;;;;;5017846;28;20022;-51
2023/07/04 02:55:53;;;;;;;5.47;1.35;;;12.90;99.90;;;;;;5023408;28;20040;-45
2023/07/04 02:58:20;;;;;;;5.60;1.58;;;12.90;99.90;;;;;;5021805;28;20137;-50
2023/07/04 03:00:50;;;;;;;7.60;2.00;;;12.90;99.90;;;;;;5027288;28;20438;-48
2023/07/04 03:03:15;;;;;;;;;;;12.90;99.90;;;;;;5032175;28;20025;-48
2023/07/04 03:05:41;;;;;;;2.72;1.00;;;12.90;99.90;;;;;;5023562;28;19919;-50
2023/07/04 03:08:07;;;;;;;4.38;1.50;;;12.90;99.90;;;;;;5019752;28;20030;-51
2023/07/04 03:10:33;;;;;;;6.57;1.73;;;12.90;99.90;;;;;;5023244;28;20072;-50
2023/07/04 03:12:59;;;;;;;4.38;1.23;;;12.90;99.90;;;;;;5011663;28;20034;-48
2023/07/04 03:15:24;;;;;;;7.28;1.63;;;12.90;99.90;;;;;;5021447;28;20029;-45
2023/07/04 03:17:50;;;;;;;5.30;1.30;;;12.90;99.90;;;;;;5021032;28;20123;-51
2023/07/04 03:20:16;;;;;;;5.20;1.38;;;13.00;99.90;;;;;;5027016;28;20026;-44
2023/07/04 03:22:43;;;;;;;3.28;1.38;;;13.00;99.90;;;;;;5017224;28;20057;-47
2023/07/04 03:25:10;;;;;;;3.13;1.23;;;13.00;99.90;;;;;;5025206;28;20440;-48
2023/07/04 03:27:37;;;;;;;4.88;1.50;;;13.10;99.90;;;;;;5017979;28;20494;-44
2023/07/04 03:30:05;;;;;;;1.90;0.95;;;13.10;99.90;;;;;;5029742;28;20025;-48
2023/07/04 03:32:31;;;;;;;2.95;1.30;;;13.10;99.90;;;;;;5025558;28;20410;-45
2023/07/04 03:35:01;;;;;;;12.23;1.50;;;13.20;99.90;;;;;;5027989;28;20061;-45
2023/07/04 03:37:31;;;;;;;3.92;1.20;;;13.20;99.90;;;;;;5024875;28;20358;-51
2023/07/04 03:39:57;;;;;;;10.82;1.63;;;13.20;99.90;;;;;;5025788;28;20436;-55
2023/07/04 03:42:24;;;;;;;12.27;1.80;;;13.30;99.90;;;;;;5026288;28;20045;-51
2023/07/04 03:44:50;;;;;;;4.55;1.30;;;13.30;99.90;;;;;;5024019;28;20033;-44
2023/07/04 03:47:16;;;;;;;1.33;1.00;;;13.30;99.90;;;;;;5027060;28;20366;-51
2023/07/04 03:49:42;;;;;;;7.32;1.48;;;13.40;99.90;;;;;;5022020;28;20557;-46
2023/07/04 03:52:08;;;;;;;5.93;1.33;;;13.40;99.90;;;;;;5013770;28;20215;-49
2023/07/04 03:54:34;;;;;;;5.32;1.67;;;13.40;99.90;;;;;;5010806;28;20422;-45
2023/07/04 03:57:00;;;;;;;5.38;1.27;;;13.50;99.90;;;;;;5010730;28;20396;-51
2023/07/04 03:59:26;;;;;;;8.18;1.50;;;13.50;99.90;;;;;;5010751;28;20056;-53
2023/07/04 04:01:51;;;;;;;8.70;2.08;;;13.50;99.90;;;;;;5010847;28;20549;-52
2023/07/04 04:04:17;;;;;;;5.65;1.50;;;13.50;99.90;;;;;;5010346;28;20033;-46
2023/07/04 04:06:43;;;;;;;5.85;1.48;;;13.60;99.90;;;;;;5010051;28;20435;-53
2023/07/04 04:09:09;;;;;;;7.22;1.67;;;13.60;99.90;;;;;;5010706;28;20441;-44
2023/07/04 04:11:36;;;;;;;3.67;1.02;;;13.60;99.90;;;;;;5010412;28;20053;-47
2023/07/04 04:14:01;;;;;;;5.80;1.52;;;13.60;99.90;;;;;;5010443;28;20032;-45
2023/07/04 04:16:27;;;;;;;6.95;1.45;;;13.60;99.90;;;;;;5011254;28;20392;-48
2023/07/04 04:18:52;;;;;;;7.25;1.58;;;13.70;99.90;;;;;;5010405;28;20022;-46
2023/07/04 04:21:18;;;;;;;6.35;1.70;;;13.70;99.90;;;;;;5010731;28;20033;-47
2023/07/04 04:23:44;;;;;;;4.50;1.35;;;13.70;99.90;;;;;;5010413;28;20024;-46
2023/07/04 04:26:12;;;;;;;7.80;1.40;;;13.70;99.90;;;;;;5010397;28;20487;-48
2023/07/04 04:28:38;;;;;;;6.18;1.42;;;13.80;99.90;;;;;;5010648;28;20026;-49
2023/07/04 04:31:03;;;;;;;3.67;1.30;;;13.80;99.90;;;;;;5010034;28;20030;-49
2023/07/04 04:33:29;;;;;;;5.93;1.40;;;13.80;99.90;;;;;;5010338;28;20022;-48
2023/07/04 04:35:54;;;;;;;8.75;1.70;;;13.80;99.90;;;;;;5009095;28;20022;-52
2023/07/04 04:38:20;;;;;;;2.65;1.25;;;13.80;99.90;;;;;;5009715;28;20523;-52
2023/07/04 04:40:46;;;;;;;6.28;2.00;;;13.80;99.90;;;;;;5011368;28;20033;-44
2023/07/04 04:43:11;;;;;;;4.47;1.65;;;13.80;99.90;;;;;;5013724;28;20037;-45
2023/07/04 04:45:38;;;;;;;8.77;1.38;;;13.80;99.90;;;;;;5029680;28;20028;-44
2023/07/04 04:48:06;;;;;;;5.82;1.58;;;13.90;99.90;;;;;;5020186;28;20029;-45
2023/07/04 04:50:32;;;;;;;4.07;1.60;;;13.90;99.90;;;;;;5024912;28;20161;-46
2023/07/04 04:52:59;;;;;;;4.13;1.27;;;13.90;99.90;;;;;;5020366;28;20032;-45
2023/07/04 04:55:25;;;;;;;10.85;1.90;;;13.90;99.90;;;;;;5022050;28;20036;-44
2023/07/04 04:57:52;;;;;;;4.70;1.45;;;13.90;99.90;;;;;;5010230;28;20034;-47
2023/07/04 05:00:18;;;;;;;6.00;1.65;;;13.90;99.90;;;;;;5009863;28;20037;-57
2023/07/04 05:02:44;;;;;;;6.47;1.60;;;14.00;99.90;;;;;;5010177;28;20390;-53
2023/07/04 05:05:11;;;;;;;5.07;1.42;;;14.00;99.90;;;;;;5010471;28;20018;-53
2023/07/04 05:07:36;;;;;;;8.90;1.48;;;14.10;99.90;;;;;;5009777;28;20044;-46
2023/07/04 05:10:02;;;;;;;5.55;1.45;;;14.10;99.90;;;;;;5009948;28;20485;-45
2023/07/04 05:12:28;;;;;;;4.60;1.40;;;14.20;99.90;;;;;;5009473;28;20549;-45
2023/07/04 05:14:54;;;;;;;6.30;1.40;;;14.20;99.90;;;;;;5009530;28;20049;-44
2023/07/04 05:17:20;;;;;;;4.82;1.35;;;14.30;99.90;;;;;;5010489;28;21074;-49
2023/07/04 05:19:49;;;;;;;7.22;1.98;;;14.30;99.90;;;;;;5013508;28;20026;-48
2023/07/04 05:22:16;;;;;;;4.38;1.35;;;14.40;99.90;;;;;;5014000;28;20117;-46
2023/07/04 05:24:41;;;;;;;5.13;1.50;;;14.40;99.90;;;;;;5013123;28;20518;-53
2023/07/04 05:27:07;;;;;;;4.53;1.20;;;14.50;99.90;;;;;;5013722;28;20156;-53
2023/07/04 05:29:32;;;;;;;4.85;1.48;;;14.60;99.90;;;;;;5013410;28;20025;-56
2023/07/04 05:31:58;;;;;;;8.70;1.63;;;14.60;99.90;;;;;;5013193;28;20030;-46
2023/07/04 05:34:24;;;;;;;5.70;1.58;;;14.70;99.90;;;;;;5013426;28;20022;-46
2023/07/04 05:36:49;;;;;;;6.88;1.42;;;14.70;99.90;;;;;;5010830;28;20095;-53
2023/07/04 05:39:15;;;;;;;3.85;1.30;;;14.80;99.90;;;;;;5013112;28;20056;-46
2023/07/04 05:41:41;;;;;;;6.50;1.42;;;14.80;99.90;;;;;;5011084;28;20041;-51
2023/07/04 05:44:09;;;;;;;5.32;1.30;;;14.90;99.90;;;;;;5013513;28;20022;-49
2023/07/04 05:46:35;;;;;;;6.60;1.80;;;14.90;99.90;;;;;;5013700;28;20494;-48
2023/07/04 05:49:02;;;;;;;5.78;1.48;;;15.00;99.90;;;;;;5013773;28;20028;-44
2023/07/04 05:51:29;;;;;;;5.13;1.25;;;15.00;99.90;;;;;;5013599;28;20025;-50
2023/07/04 05:53:54;;;;;;;2.45;1.20;;;15.10;99.90;;;;;;5010754;28;20041;-48
2023/07/04 05:56:24;;;;;;;5.60;1.40;;;15.10;99.90;;;;;;5004610;28;20045;-47
2023/07/04 05:58:53;;;;;;;5.63;1.27;;;15.20;99.90;;;;;;5006923;28;20030;-49
2023/07/04 06:01:28;;;;;;;6.97;2.25;;;15.30;99.90;;;;;;5007957;28;20030;-54
2023/07/04 06:03:55;;;;;;;7.85;2.10;;;15.40;99.90;;;;;;5008529;28;20414;-47
2023/07/04 06:06:27;;;;;;;5.15;1.58;;;15.50;99.90;;;;;;5012701;28;20483;-49
2023/07/04 06:08:55;;;;;;;5.45;1.48;;;15.60;99.90;;;;;;5013054;28;20034;-48
2023/07/04 06:11:22;;;;;;;8.63;1.63;;;15.70;99.90;;;;;;5012792;28;20124;-47
2023/07/04 06:13:48;;;;;;;2.58;1.10;;;15.80;99.90;;;;;;5012760;28;20026;-49
2023/07/04 06:16:14;;;;;;;7.47;1.60;;;15.90;99.90;;;;;;5012826;28;20457;-55
2023/07/04 06:18:39;;;;;;;6.05;1.60;;;16.10;99.90;;;;;;5012999;28;20446;-50
2023/07/04 06:21:06;;;;;;;6.70;1.73;;;16.20;99.90;;;;;;5011798;28;20026;-51
2023/07/04 06:23:31;;;;;;;3.97;1.30;;;16.20;99.90;;;;;;5012636;28;20084;-49
2023/07/04 06:25:58;;;;;;;6.28;1.60;;;16.30;99.90;;;;;;5011188;28;20022;-47
2023/07/04 06:28:23;;;;;;;2.53;1.10;;;16.30;99.90;;;;;;5012544;28;20505;-49
2023/07/04 06:30:49;;;;;;;5.18;1.17;;;16.30;99.90;;;;;;5012017;28;20022;-48
2023/07/04 06:33:16;;;;;;;8.77;1.65;;;16.30;99.90;;;;;;5012625;28;20045;-46
2023/07/04 06:35:42;;;;;;;6.40;1.50;;;16.30;99.90;;;;;;5012638;28;20018;-53
2023/07/04 06:38:09;;;;;;;2.90;0.90;;;16.40;99.90;;;;;;5012552;28;20038;-49
2023/07/04 06:40:34;;;;;;;5.85;1.55;;;16.40;99.90;;;;;;5012609;28;20010;-48
2023/07/04 06:43:00;;;;;;;3.63;1.30;;;16.40;99.90;;;;;;5024648;28;20037;-48
2023/07/04 06:45:26;;;;;;;5.82;1.52;;;16.40;99.90;;;;;;5019970;28;20384;-48
2023/07/04 06:47:52;;;;;;;2.70;1.10;;;16.40;99.90;;;;;;5011644;28;20037;-52
2023/07/04 06:50:17;;;;;;;7.97;1.73;;;16.50;99.90;;;;;;5012290;28;20030;-50
2023/07/04 06:52:43;;;;;;;10.55;1.88;;;16.50;99.90;;;;;;5014682;28;20081;-49
2023/07/04 06:55:09;;;;;;;3.00;1.10;;;16.50;99.90;;;;;;5011234;28;20030;-50
2023/07/04 06:57:35;;;;;;;4.05;1.50;;;16.50;99.90;;;;;;5010979;28;20033;-47
2023/07/04 07:00:00;;;;;;;7.13;1.17;;;16.60;99.90;;;;;;5012182;28;20116;-45
2023/07/04 07:02:26;;;;;;;7.55;2.65;;;16.60;99.90;;;;;;5025907;28;20445;-48
2023/07/04 07:04:52;;;;;;;5.82;1.63;;;16.80;99.90;;;;;;5032004;28;20032;-51
2023/07/04 07:07:17;;;;;;;6.53;1.30;;;17.00;99.90;;;;;;5032014;28;20032;-51
2023/07/04 07:09:43;;;;;;;5.65;1.42;;;17.10;99.90;;;;;;5031511;28;20397;-49
2023/07/04 07:12:11;;;;;;;4.63;1.30;;;17.30;99.90;;;;;;5031880;28;20478;-47
2023/07/04 07:14:37;;;;;;;5.55;1.40;;;17.40;99.90;;;;;;5031635;28;20478;-47
2023/07/04 07:17:05;;;;;;;10.48;1.10;;;17.40;99.90;;;;;;5031119;28;20037;-52
2023/07/04 07:19:30;;;;;;;5.35;1.08;;;17.50;99.90;;;;;;5029841;28;20021;-45
2023/07/04 07:21:57;;;;;;;2.75;0.98;;;17.50;99.90;;;;;;5029932;28;20467;-48
2023/07/04 07:24:23;;;;;;;4.93;1.52;;;17.60;99.90;;;;;;5029736;28;20079;-48
2023/07/04 07:26:49;;;;;;;3.97;1.48;;;17.60;99.90;;;;;;5029786;28;20025;-51
2023/07/04 07:29:14;;;;;;;4.35;1.23;;;17.60;99.90;;;;;;5029958;28;20065;-48
2023/07/04 07:31:40;;;;;;;2.80;1.20;;;17.60;99.90;;;;;;5029722;28;20077;-52
2023/07/04 07:34:06;;;;;;;2.85;1.13;;;17.60;99.90;;;;;;5031665;28;20112;-46
2023/07/04 07:36:38;;;;;;;5.10;1.45;;;17.70;99.90;;;;;;5031280;28;20567;-46
2023/07/04 07:39:05;;;;;;;2.53;0.98;;;17.80;99.90;;;;;;5031499;28;20021;-51
2023/07/04 07:41:37;;;;;;;4.00;1.40;;;18.00;99.90;;;;;;5024325;28;20171;-49
2023/07/04 07:44:04;;;;;;;3.92;1.08;;;18.10;99.90;;;;;;5011558;28;20022;-49
2023/07/04 07:46:29;;;;;;;4.93;1.55;;;18.20;99.90;;;;;;5011434;28;20508;-56
2023/07/04 07:48:56;;;;;;;3.00;1.45;;;18.30;99.90;;;;;;5011415;28;20021;-49
2023/07/04 07:51:21;;;;;;;3.70;1.15;;;18.40;99.90;;;;;;5016135;28;20033;-48
2023/07/04 07:53:49;;;;;;;5.65;1.08;;;18.90;99.90;;;;;;5029867;28;20075;-51
2023/07/04 07:56:17;;;;;;;3.83;1.20;;;19.40;99.90;;;;;;5030960;28;20041;-54
2023/07/04 07:58:43;;;;;;;5.57;1.80;;;19.80;99.90;;;;;;5031130;28;20040;-47
2023/07/04 08:01:14;;;;;;;4.90;1.10;;;20.30;99.90;;;;;;5030993;28;20056;-50
2023/07/04 08:03:41;;;;;;;4.43;1.30;;;20.20;99.90;;;;;;5030815;28;20030;-54
2023/07/04 08:06:20;;;;;;;4.97;1.35;;;19.80;99.90;;;;;;5031190;28;20117;-47
2023/07/04 08:08:45;;;;;;;3.75;1.27;;;19.60;99.90;;;;;;5031018;28;20072;-58
2023/07/04 08:11:15;;;;;;;3.67;1.10;;;19.10;99.90;;;;;;5030698;28;20057;-48
2023/07/04 08:13:40;;;;;;;;;;;18.90;99.90;;;;;;5031408;28;20091;-45
2023/07/04 08:16:06;;;;;;;3.15;1.10;;;18.70;99.90;;;;;;5030762;28;19916;-47
2023/07/04 08:18:32;;;;;;;3.55;1.38;;;18.50;99.90;;;;;;5030656;28;20026;-46
2023/07/04 08:21:03;;;;;;;1.98;0.80;;;18.30;99.90;;;;;;5030948;28;20025;-47
2023/07/04 08:23:29;;;;;;;3.47;1.48;;;18.20;99.90;;;;;;5030861;28;20020;-52
2023/07/04 08:25:54;;;;;;;2.67;1.10;;;18.20;99.90;;;;;;5022825;28;20026;-44
2023/07/04 08:28:23;;;;;;;2.55;1.13;;;18.20;99.90;;;;;;5011352;28;20021;-51
2023/07/04 08:30:50;;;;;;;2.33;0.98;;;18.50;99.90;;;;;;4997594;28;20403;-48
2023/07/04 08:33:17;;;;;;;3.58;1.40;;;18.90;99.90;;;;;;5010800;28;20034;-47
2023/07/04 08:36:00;;;;;;;2.60;1.00;;;19.40;99.90;;;;;;5010731;28;20512;-46
2023/07/04 08:38:26;;;;;;;2.55;1.05;;;20.20;99.90;;;;;;5010657;28;20033;-45
2023/07/04 08:40:52;;;;;;;3.15;1.40;;;20.70;99.90;;;;;;5013576;28;20029;-46
2023/07/04 08:43:34;;;;;;;3.05;1.20;;;21.30;99.90;;;;;;5010518;28;20504;-47
2023/07/04 08:46:05;;;;;;;2.47;1.23;;;21.90;99.90;;;;;;5010815;28;20026;-45
2023/07/04 08:48:32;;;;;;;6.53;1.30;;;22.70;99.90;;;;;;5010571;28;20371;-46
2023/07/04 08:51:02;;;;;;;4.22;1.23;;;23.10;99.90;;;;;;5010631;28;20026;-45
2023/07/04 08:53:28;;;;;;;5.57;1.35;;;23.30;99.90;;;;;;5013445;28;20426;-50
2023/07/04 08:56:21;;;;;;;2.83;1.13;;;23.60;99.90;;;;;;5014462;28;20038;-55
2023/07/04 08:59:05;;;;;;;5.10;1.50;;;23.60;99.90;;;;;;5014202;28;20037;-49
2023/07/04 09:01:57;;;;;;;4.75;1.33;;;23.30;99.90;;;;;;5014646;28;20037;-46
2023/07/04 09:05:10;;;;;;;7.03;1.70;;;23.10;99.90;;;;;;5005847;28;20180;-46
2023/07/04 09:07:54;;;;;;;6.22;1.70;;;22.60;99.90;;;;;;5006064;28;20486;-54
2023/07/04 09:10:44;;;;;;;5.28;1.70;;;22.30;99.90;;;;;;5013990;28;20054;-48
2023/07/04 09:13:14;;;;;;;4.00;1.77;;;21.70;99.90;;;;;;5014478;28;20060;-52
2023/07/04 09:15:46;;;;;;;5.65;1.65;;;21.30;99.90;;;;;;5014132;28;20053;-47
2023/07/04 09:19:09;;;;;;;5.10;1.55;;;21.00;99.90;;;;;;5014233;28;20030;-48
2023/07/04 09:21:39;;;;;;;5.35;2.05;;;21.00;99.90;;;;;;5011705;28;20057;-50
2023/07/04 09:24:05;;;;;;;4.25;1.90;;;20.90;99.90;;;;;;5009862;28;20032;-52
2023/07/04 09:26:52;;;;;;;7.75;1.88;;;21.10;99.90;;;;;;5010558;28;20030;-51
2023/07/04 09:29:22;;;;;;;7.18;1.77;;;21.20;99.90;;;;;;5013943;28;20395;-53
2023/07/04 09:31:51;;;;;;;;;;;21.20;99.90;;;;;;5014124;28;20057;-54
2023/07/04 09:34:25;;;;;;;5.10;1.30;;;21.50;99.90;;;;;;5013807;28;20282;-47
2023/07/04 09:36:52;;;;;;;5.50;2.10;;;21.50;99.90;;;;;;5013789;28;20517;-53
2023/07/04 09:39:18;;;;;;;5.95;2.40;;;21.50;99.90;;;;;;5013791;28;20033;-52
2023/07/04 09:41:56;;;;;;;5.28;1.63;;;21.40;99.90;;;;;;5028839;28;20030;-46
2023/07/04 09:44:36;;;;;;;5.25;1.92;;;21.30;99.90;;;;;;5033644;28;20049;-52
2023/07/04 09:47:04;;;;;;;6.10;1.88;;;21.60;99.90;;;;;;5033545;28;20025;-45
2023/07/04 09:49:35;;;;;;;5.45;1.83;;;21.50;99.90;;;;;;5033642;28;20156;-56
2023/07/04 09:52:02;;;;;;;4.07;1.55;;;21.40;99.90;;;;;;5033222;28;20175;-49
2023/07/04 09:54:39;;;;;;;6.70;2.00;;;21.00;99.90;;;;;;5033700;28;20052;-57
2023/07/04 09:57:34;;;;;;;6.63;2.22;;;20.80;99.90;;;;;;5033141;28;20044;-48
2023/07/04 10:00:24;;;;;;;6.15;1.80;;;20.60;99.90;;;;;;5019768;28;20033;-52
2023/07/04 10:02:56;;;;;;;8.95;2.20;;;20.30;99.90;;;;;;5013460;28;20402;-54
2023/07/04 10:05:28;;;;;;;5.72;1.85;;;20.00;99.90;;;;;;5012393;28;20025;-48
2023/07/04 10:08:23;;;;;;;6.20;1.80;;;19.60;99.90;;;;;;5012418;28;20025;-47
2023/07/04 10:10:54;;;;;;;5.07;2.05;;;19.00;99.90;;;;;;4999955;28;20510;-47
2023/07/04 10:13:33;;;;;;;6.35;2.00;;;18.40;99.90;;;;;;5007592;28;20546;-48
2023/07/04 10:15:59;;;;;;;4.85;2.10;;;18.00;99.90;;;;;;5010482;28;20038;-43
2023/07/04 10:18:33;;;;;;;6.60;1.95;;;17.90;99.90;;;;;;5013092;28;20093;-49
2023/07/04 10:21:00;;;;;;;5.38;1.83;;;17.90;99.90;;;;;;5012265;28;20029;-56
2023/07/04 10:23:29;;;;;;;5.95;2.15;;;18.20;99.90;;;;;;5012953;28;20479;-50
2023/07/04 10:25:57;;;;;;;7.65;2.22;;;18.60;99.90;;;;;;5012787;28;20088;-49
2023/07/04 10:28:27;;;;;;;7.38;1.80;;;18.90;99.90;;;;;;5013018;28;20061;-48
2023/07/04 10:30:59;;;;;;;6.25;1.92;;;19.10;99.90;;;;;;5012850;28;20137;-45
2023/07/04 10:33:54;;;;;;;4.60;1.95;;;19.40;99.90;;;;;;4999988;28;20022;-52
2023/07/04 10:36:34;;;;;;;8.02;2.47;;;19.70;99.90;;;;;;5012085;28;20099;-56
2023/07/04 10:39:05;;;;;;;5.93;1.90;;;20.20;99.90;;;;;;5012710;28;20156;-49
2023/07/04 10:41:40;;;;;;;6.75;2.10;;;20.60;99.90;;;;;;5024886;28;20112;-49
2023/07/04 10:44:11;;;;;;;9.10;2.22;;;20.90;99.90;;;;;;5032517;28;20029;-51
2023/07/04 10:46:44;;;;;;;4.57;1.60;;;21.30;99.90;;;;;;5032473;28;20029;-47
2023/07/04 10:49:18;;;;;;;6.20;2.00;;;21.80;99.90;;;;;;5032461;28;20528;-48
2023/07/04 10:51:47;;;;;;;8.70;2.05;;;22.10;99.90;;;;;;5024170;28;20486;-44
2023/07/04 10:54:13;;;;;;;6.90;2.00;;;22.10;99.90;;;;;;5012238;28;20187;-49
2023/07/04 10:56:45;;;;;;;5.35;1.60;;;22.00;99.90;;;;;;5012179;28;20379;-48
2023/07/04 10:59:33;;;;;;;7.50;2.03;;;21.90;99.90;;;;;;5012271;28;20426;-45
2023/07/04 11:02:25;;;;;;;6.68;1.92;;;21.80;99.90;;;;;;5006524;28;20100;-44
2023/07/04 11:04:59;;;;;;;4.65;1.50;;;21.70;99.90;;;;;;5011426;28;20061;-45
2023/07/04 11:07:26;;;;;;;4.07;1.80;;;21.40;99.90;;;;;;5012216;28;20120;-52
2023/07/04 11:09:57;;;;;;;5.45;1.92;;;21.50;99.90;;;;;;5011871;28;20037;-52
2023/07/04 11:12:27;;;;;;;5.65;1.75;;;21.80;99.90;;;;;;5011773;28;20037;-48
2023/07/04 11:15:08;;;;;;;7.28;1.95;;;21.80;99.90;;;;;;5009064;28;20512;-50
2023/07/04 11:17:35;;;;;;;7.43;2.15;;;21.80;99.90;;;;;;5011227;28;20038;-52
2023/07/04 11:20:11;;;;;;;4.53;1.70;;;21.60;99.90;;;;;;5011958;28;20014;-45
2023/07/04 11:23:14;;;;;;;9.68;2.45;;;21.60;99.90;;;;;;5011770;28;20022;-51
2023/07/04 11:25:46;;;;;;;8.48;2.33;;;21.60;99.90;;;;;;5002005;28;20537;-48
2023/07/04 11:28:28;;;;;;;7.50;2.50;;;21.60;99.90;;;;;;5011977;28;20054;-47
2023/07/04 11:31:19;;;;;;;10.10;2.00;;;21.40;99.90;;;;;;5011834;28;20018;-52
2023/07/04 11:33:53;;;;;;;11.23;2.22;;;21.50;99.90;;;;;;5027402;28;20053;-50
2023/07/04 11:36:40;;;;;;;6.53;1.90;;;21.50;99.90;;;;;;5031363;28;20364;-51
2023/07/04 11:39:18;;;;;;;8.43;2.80;;;21.50;99.90;;;;;;5031264;28;20474;-46
2023/07/04 11:41:44;;;;;;;7.28;2.13;;;21.10;99.90;;;;;;5031327;28;20021;-49
2023/07/04 11:44:28;;;;;;;4.13;1.83;;;21.20;99.90;;;;;;5030209;28;20025;-52
2023/07/04 11:47:03;;;;;;;6.50;2.55;;;21.10;99.90;;;;;;5018687;28;20027;-49
2023/07/04 11:49:31;;;;;;;6.25;2.63;;;21.00;99.90;;;;;;5008104;28;20159;-46
2023/07/04 11:52:33;;;;;;;8.00;2.40;;;20.80;99.90;;;;;;5006478;28;20434;-49
2023/07/04 11:55:05;;;;;;;7.07;2.72;;;20.40;99.90;;;;;;4989324;28;20039;-49
2023/07/04 11:57:55;;;;;;;6.90;2.10;;;20.10;99.90;;;;;;5001670;28;20503;-53
2023/07/04 12:00:44;;;;;;;7.63;2.50;;;19.80;99.90;;;;;;5010844;28;20515;-52
2023/07/04 12:03:19;;;;;;;10.88;2.85;;;19.70;99.90;;;;;;5013564;28;20030;-49
2023/07/04 12:05:55;;;;;;;6.80;2.38;;;19.60;99.90;;;;;;5022368;28;20112;-52
2023/07/04 12:08:36;;;;;;;6.75;2.20;;;19.50;99.90;;;;;;5011021;28;20125;-47
2023/07/04 12:11:04;;;;;;;9.88;2.35;;;19.60;99.90;;;;;;5010941;28;20117;-51
2023/07/04 12:13:34;;;;;;;7.57;3.20;;;19.80;99.90;;;;;;5010899;28;20022;-48
2023/07/04 12:16:00;;;;;;;6.88;2.05;;;19.70;99.90;;;;;;5010752;28;20040;-53
2023/07/04 12:18:28;;;;;;;7.47;2.00;;;19.80;99.90;;;;;;5015866;28;20026;-54
2023/07/04 12:20:57;;;;;;;5.35;1.77;;;19.80;99.90;;;;;;5011682;28;20110;-54
2023/07/04 12:23:23;;;;;;;;;;;19.80;99.90;;;;;;5020621;28;20489;-45
2023/07/04 12:25:51;;;;;;;10.10;2.25;;;19.80;99.90;;;;;;5030333;28;19952;-45
2023/07/04 12:28:22;;;;;;;8.05;2.28;;;19.90;99.90;;;;;;5028578;28;20025;-43
2023/07/04 12:30:51;;;;;;;4.35;1.58;;;19.80;99.90;;;;;;5029477;28;20030;-50
2023/07/04 12:33:20;;;;;;;6.50;2.42;;;19.80;99.90;;;;;;5022661;28;20018;-50
2023/07/04 12:35:54;;;;;;;8.88;2.17;;;19.80;99.90;;;;;;5007825;28;20042;-47
2023/07/04 12:38:25;;;;;;;6.05;2.22;;;19.80;99.90;;;;;;5008601;28;20030;-54
2023/07/04 12:40:52;;;;;;;5.45;2.25;;;19.80;99.90;;;;;;5017561;28;20048;-49
2023/07/04 12:43:18;;;;;;;8.88;1.88;;;19.80;99.90;;;;;;5028894;28;20021;-51
2023/07/04 12:45:44;;;;;;;9.48;2.08;;;19.80;99.90;;;;;;5030620;28;20021;-48
2023/07/04 12:48:12;;;;;;;8.63;2.28;;;19.90;99.90;;;;;;5030393;28;20355;-51
2023/07/04 12:50:47;;;;;;;7.18;1.90;;;19.80;99.90;;;;;;5030441;28;20026;-49
2023/07/04 12:53:13;;;;;;;6.60;2.03;;;19.70;99.90;;;;;;5030335;28;20498;-45
2023/07/04 12:55:40;;;;;;;5.53;1.90;;;19.50;99.90;;;;;;5028808;28;20068;-49
2023/07/04 12:58:06;;;;;;;7.32;2.28;;;19.40;99.90;;;;;;5030357;28;20018;-46
2023/07/04 13:01:06;;;;;;;4.72;1.85;;;19.40;99.90;;;;;;5030526;28;20022;-45
2023/07/04 13:03:32;;;;;;;9.77;1.83;;;19.40;99.90;;;;;;5018498;28;20034;-45